Terminal Aerodrome Forecast
Issued by NWS Sterling, VA

Home | Current Version | Previous Version | Text Only | Print | Product List | Glossary On
Versions: 1 2 3 4 5 6 7 8 9 10 11 12 13 14 15 16 17 18 19 20 21 22 23
000
FTUS41 KLWX 300800 AAA
TAFIAD
TAF AMD
KIAD 300857Z 3009/3112 VRB05KT P6SM BKN050
     FM301100 31010G17KT P6SM SCT050 BKN100
     FM301500 31015G24KT P6SM BKN040
     FM301900 32022G34KT P6SM SCT040
     FM310400 31016G26KT P6SM FEW250
     FM311100 31011G19KT P6SM FEW250=

USA.gov is the U.S. government's official web portal to all federal, state and local government web resources and services.